sensor_id;sensor_type;location;lat;lon;timestamp;temperature;humidity
32536;DHT22;18974;50.838;4.636;2023-02-05T00:01:18;10.30;99.90
32536;DHT22;18974;50.838;4.636;2023-02-05T00:03:44;10.20;99.90
32536;DHT22;18974;50.838;4.636;2023-02-05T00:06:09;10.20;99.90
32536;DHT22;18974;50.838;4.636;2023-02-05T00:08:35;10.20;99.90
32536;DHT22;18974;50.838;4.636;2023-02-05T00:11:01;10.20;99.90
32536;DHT22;18974;50.838;4.636;2023-02-05T00:13:35;10.20;99.90
32536;DHT22;18974;50.838;4.636;2023-02-05T00:16:09;10.20;99.90
32536;DHT22;18974;50.838;4.636;2023-02-05T00:18:35;10.20;99.90
32536;DHT22;18974;50.838;4.636;2023-02-05T00:21:02;10.00;99.90
32536;DHT22;18974;50.838;4.636;2023-02-05T00:23:28;10.10;99.90
32536;DHT22;18974;50.838;4.636;2023-02-05T00:25:53;10.20;99.90
32536;DHT22;18974;50.838;4.636;2023-02-05T00:28:19;10.10;99.90
32536;DHT22;18974;50.838;4.636;2023-02-05T00:30:44;10.10;99.90
32536;DHT22;18974;50.838;4.636;2023-02-05T00:33:10;10.10;99.90
32536;DHT22;18974;50.838;4.636;2023-02-05T00:35:36;10.00;99.90
32536;DHT22;18974;50.838;4.636;2023-02-05T00:38:01;9.90;99.90
32536;DHT22;18974;50.838;4.636;2023-02-05T00:40:27;10.00;99.90
32536;DHT22;18974;50.838;4.636;2023-02-05T00:42:52;9.90;99.90
32536;DHT22;18974;50.838;4.636;2023-02-05T00:45:18;10.10;99.90
32536;DHT22;18974;50.838;4.636;2023-02-05T00:47:43;10.00;99.90
32536;DHT22;18974;50.838;4.636;2023-02-05T00:50:09;10.00;99.90
32536;DHT22;18974;50.838;4.636;2023-02-05T00:52:35;10.00;99.90
32536;DHT22;18974;50.838;4.636;2023-02-05T00:55:00;9.90;99.90
32536;DHT22;18974;50.838;4.636;2023-02-05T00:57:26;9.80;99.90
32536;DHT22;18974;50.838;4.636;2023-02-05T00:59:52;10.00;99.90
32536;DHT22;18974;50.838;4.636;2023-02-05T01:02:19;9.80;99.90
32536;DHT22;18974;50.838;4.636;2023-02-05T01:04:49;9.90;99.90
32536;DHT22;18974;50.838;4.636;2023-02-05T01:07:15;9.80;99.90
32536;DHT22;18974;50.838;4.636;2023-02-05T01:09:40;9.80;99.90
32536;DHT22;18974;50.838;4.636;2023-02-05T01:12:08;9.90;99.90
32536;DHT22;18974;50.838;4.636;2023-02-05T01:14:34;9.90;99.90
32536;DHT22;18974;50.838;4.636;2023-02-05T01:16:59;9.80;99.90
32536;DHT22;18974;50.838;4.636;2023-02-05T01:19:25;9.90;99.90
32536;DHT22;18974;50.838;4.636;2023-02-05T01:21:51;10.00;99.90
32536;DHT22;18974;50.838;4.636;2023-02-05T01:24:16;9.90;99.90
32536;DHT22;18974;50.838;4.636;2023-02-05T01:26:42;10.00;99.90
32536;DHT22;18974;50.838;4.636;2023-02-05T01:29:07;9.90;99.90
32536;DHT22;18974;50.838;4.636;2023-02-05T01:31:33;9.90;99.90
32536;DHT22;18974;50.838;4.636;2023-02-05T01:33:59;9.80;99.90
32536;DHT22;18974;50.838;4.636;2023-02-05T01:36:25;9.80;99.90
32536;DHT22;18974;50.838;4.636;2023-02-05T01:38:50;9.80;99.90
32536;DHT22;18974;50.838;4.636;2023-02-05T01:41:18;9.80;99.90
32536;DHT22;18974;50.838;4.636;2023-02-05T01:46:30;9.90;99.90
32536;DHT22;18974;50.838;4.636;2023-02-05T01:48:57;9.90;99.90
32536;DHT22;18974;50.838;4.636;2023-02-05T01:51:23;9.90;99.90
32536;DHT22;18974;50.838;4.636;2023-02-05T01:53:51;9.90;99.90
32536;DHT22;18974;50.838;4.636;2023-02-05T01:56:22;10.00;99.90
32536;DHT22;18974;50.838;4.636;2023-02-05T01:58:59;9.80;99.90
32536;DHT22;18974;50.838;4.636;2023-02-05T02:01:27;9.90;99.90
32536;DHT22;18974;50.838;4.636;2023-02-05T02:03:54;9.80;99.90
32536;DHT22;18974;50.838;4.636;2023-02-05T02:06:21;9.90;99.90
32536;DHT22;18974;50.838;4.636;2023-02-05T02:08:46;9.90;99.90
32536;DHT22;18974;50.838;4.636;2023-02-05T02:11:14;9.80;99.90
32536;DHT22;18974;50.838;4.636;2023-02-05T02:13:42;9.80;99.90
32536;DHT22;18974;50.838;4.636;2023-02-05T02:16:09;9.80;99.90
32536;DHT22;18974;50.838;4.636;2023-02-05T02:18:38;9.70;99.90
32536;DHT22;18974;50.838;4.636;2023-02-05T02:26:10;9.60;99.90
32536;DHT22;18974;50.838;4.636;2023-02-05T02:28:49;9.60;99.90
32536;DHT22;18974;50.838;4.636;2023-02-05T02:31:25;9.60;99.90
32536;DHT22;18974;50.838;4.636;2023-02-05T02:36:35;9.50;99.90
32536;DHT22;18974;50.838;4.636;2023-02-05T02:41:42;9.50;99.90
32536;DHT22;18974;50.838;4.636;2023-02-05T02:44:14;9.40;99.90
32536;DHT22;18974;50.838;4.636;2023-02-05T02:46:46;9.50;99.90
32536;DHT22;18974;50.838;4.636;2023-02-05T02:49:17;9.50;99.90
32536;DHT22;18974;50.838;4.636;2023-02-05T02:51:48;9.60;99.90
32536;DHT22;18974;50.838;4.636;2023-02-05T02:54:17;9.50;99.90
32536;DHT22;18974;50.838;4.636;2023-02-05T02:56:45;9.60;99.90
32536;DHT22;18974;50.838;4.636;2023-02-05T02:59:21;9.50;99.90
32536;DHT22;18974;50.838;4.636;2023-02-05T03:01:48;9.60;99.90
32536;DHT22;18974;50.838;4.636;2023-02-05T03:04:27;9.50;99.90
32536;DHT22;18974;50.838;4.636;2023-02-05T03:09:54;9.50;99.90
32536;DHT22;18974;50.838;4.636;2023-02-05T03:12:21;9.50;99.90
32536;DHT22;18974;50.838;4.636;2023-02-05T03:14:47;9.60;99.90
32536;DHT22;18974;50.838;4.636;2023-02-05T03:17:13;9.60;99.90
32536;DHT22;18974;50.838;4.636;2023-02-05T03:19:44;9.60;99.90
32536;DHT22;18974;50.838;4.636;2023-02-05T03:22:11;9.50;99.90
32536;DHT22;18974;50.838;4.636;2023-02-05T03:24:37;9.40;99.90
32536;DHT22;18974;50.838;4.636;2023-02-05T03:27:03;9.60;99.90
32536;DHT22;18974;50.838;4.636;2023-02-05T03:29:32;9.50;99.90
32536;DHT22;18974;50.838;4.636;2023-02-05T03:32:17;9.60;99.90
32536;DHT22;18974;50.838;4.636;2023-02-05T03:40:19;9.40;99.90
32536;DHT22;18974;50.838;4.636;2023-02-05T03:43:01;9.50;99.90
32536;DHT22;18974;50.838;4.636;2023-02-05T03:48:41;9.50;99.90
32536;DHT22;18974;50.838;4.636;2023-02-05T03:56:31;9.40;99.90
32536;DHT22;18974;50.838;4.636;2023-02-05T03:58:59;9.30;99.90
32536;DHT22;18974;50.838;4.636;2023-02-05T04:01:27;9.30;99.90
32536;DHT22;18974;50.838;4.636;2023-02-05T04:03:53;9.30;99.90
32536;DHT22;18974;50.838;4.636;2023-02-05T04:06:18;9.30;99.90
32536;DHT22;18974;50.838;4.636;2023-02-05T04:08:44;9.30;99.90
32536;DHT22;18974;50.838;4.636;2023-02-05T04:11:10;9.30;99.90
32536;DHT22;18974;50.838;4.636;2023-02-05T04:13:35;9.20;99.90
32536;DHT22;18974;50.838;4.636;2023-02-05T04:16:01;9.10;99.90
32536;DHT22;18974;50.838;4.636;2023-02-05T04:18:26;9.20;99.90
32536;DHT22;18974;50.838;4.636;2023-02-05T04:20:52;9.20;99.90
32536;DHT22;18974;50.838;4.636;2023-02-05T04:23:20;9.20;99.90
32536;DHT22;18974;50.838;4.636;2023-02-05T04:25:46;9.20;99.90
32536;DHT22;18974;50.838;4.636;2023-02-05T04:28:11;9.20;99.90
32536;DHT22;18974;50.838;4.636;2023-02-05T04:30:38;9.20;99.90
32536;DHT22;18974;50.838;4.636;2023-02-05T04:33:03;9.10;99.90
32536;DHT22;18974;50.838;4.636;2023-02-05T04:35:29;9.10;99.90
32536;DHT22;18974;50.838;4.636;2023-02-05T04:37:55;9.00;99.90
32536;DHT22;18974;50.838;4.636;2023-02-05T04:40:20;9.10;99.90
32536;DHT22;18974;50.838;4.636;2023-02-05T04:42:46;9.20;99.90
32536;DHT22;18974;50.838;4.636;2023-02-05T04:45:12;9.10;99.90
32536;DHT22;18974;50.838;4.636;2023-02-05T04:47:37;9.20;99.90
32536;DHT22;18974;50.838;4.636;2023-02-05T04:50:03;9.20;99.90
32536;DHT22;18974;50.838;4.636;2023-02-05T04:52:29;9.20;99.90
32536;DHT22;18974;50.838;4.636;2023-02-05T04:54:55;9.20;99.90
32536;DHT22;18974;50.838;4.636;2023-02-05T04:57:20;9.30;99.90
32536;DHT22;18974;50.838;4.636;2023-02-05T04:59:48;9.20;99.90
32536;DHT22;18974;50.838;4.636;2023-02-05T05:02:15;9.10;99.90
32536;DHT22;18974;50.838;4.636;2023-02-05T05:04:41;9.10;99.90
32536;DHT22;18974;50.838;4.636;2023-02-05T05:07:07;9.10;99.90
32536;DHT22;18974;50.838;4.636;2023-02-05T05:09:35;9.00;99.90
32536;DHT22;18974;50.838;4.636;2023-02-05T05:12:01;9.00;99.90
32536;DHT22;18974;50.838;4.636;2023-02-05T05:14:27;9.00;99.90
32536;DHT22;18974;50.838;4.636;2023-02-05T05:16:53;8.90;99.90
32536;DHT22;18974;50.838;4.636;2023-02-05T05:19:18;8.90;99.90
32536;DHT22;18974;50.838;4.636;2023-02-05T05:21:44;8.90;99.90
32536;DHT22;18974;50.838;4.636;2023-02-05T05:24:09;8.90;99.90
32536;DHT22;18974;50.838;4.636;2023-02-05T05:26:35;8.90;99.90
32536;DHT22;18974;50.838;4.636;2023-02-05T05:29:02;8.90;99.90
32536;DHT22;18974;50.838;4.636;2023-02-05T05:31:28;8.80;99.90
32536;DHT22;18974;50.838;4.636;2023-02-05T05:33:53;8.80;99.90
32536;DHT22;18974;50.838;4.636;2023-02-05T05:36:19;8.80;99.90
32536;DHT22;18974;50.838;4.636;2023-02-05T05:38:44;8.80;99.90
32536;DHT22;18974;50.838;4.636;2023-02-05T05:41:20;8.70;99.90
32536;DHT22;18974;50.838;4.636;2023-02-05T05:44:04;8.70;99.90
32536;DHT22;18974;50.838;4.636;2023-02-05T05:46:30;8.70;99.90
32536;DHT22;18974;50.838;4.636;2023-02-05T05:48:57;8.70;99.90
32536;DHT22;18974;50.838;4.636;2023-02-05T05:51:25;8.70;99.90
32536;DHT22;18974;50.838;4.636;2023-02-05T05:53:50;8.70;99.90
32536;DHT22;18974;50.838;4.636;2023-02-05T05:56:17;8.60;99.90
32536;DHT22;18974;50.838;4.636;2023-02-05T05:58:43;8.50;99.90
32536;DHT22;18974;50.838;4.636;2023-02-05T06:01:10;8.60;99.90
32536;DHT22;18974;50.838;4.636;2023-02-05T06:03:36;8.60;99.90
32536;DHT22;18974;50.838;4.636;2023-02-05T06:06:06;8.60;99.90
32536;DHT22;18974;50.838;4.636;2023-02-05T06:08:33;8.60;99.90
32536;DHT22;18974;50.838;4.636;2023-02-05T06:10:58;8.60;99.90
32536;DHT22;18974;50.838;4.636;2023-02-05T06:13:27;8.50;99.90
32536;DHT22;18974;50.838;4.636;2023-02-05T06:15:53;8.60;99.90
32536;DHT22;18974;50.838;4.636;2023-02-05T06:18:22;8.50;99.90
32536;DHT22;18974;50.838;4.636;2023-02-05T06:20:48;8.70;99.90
32536;DHT22;18974;50.838;4.636;2023-02-05T06:23:13;8.60;99.90
32536;DHT22;18974;50.838;4.636;2023-02-05T06:25:39;8.50;99.90
32536;DHT22;18974;50.838;4.636;2023-02-05T06:28:05;8.60;99.90
32536;DHT22;18974;50.838;4.636;2023-02-05T06:30:30;8.60;99.90
32536;DHT22;18974;50.838;4.636;2023-02-05T06:32:56;8.60;99.90
32536;DHT22;18974;50.838;4.636;2023-02-05T06:35:22;8.60;99.90
32536;DHT22;18974;50.838;4.636;2023-02-05T06:37:48;8.60;99.90
32536;DHT22;18974;50.838;4.636;2023-02-05T06:40:15;8.60;99.90
32536;DHT22;18974;50.838;4.636;2023-02-05T06:42:42;8.60;99.90
32536;DHT22;18974;50.838;4.636;2023-02-05T06:45:08;8.60;99.90
32536;DHT22;18974;50.838;4.636;2023-02-05T06:47:34;8.70;99.90
32536;DHT22;18974;50.838;4.636;2023-02-05T06:50:00;8.80;99.90
32536;DHT22;18974;50.838;4.636;2023-02-05T06:52:25;8.70;99.90
32536;DHT22;18974;50.838;4.636;2023-02-05T06:54:51;8.70;99.90
32536;DHT22;18974;50.838;4.636;2023-02-05T06:57:16;8.80;99.90
32536;DHT22;18974;50.838;4.636;2023-02-05T06:59:42;8.80;99.90
32536;DHT22;18974;50.838;4.636;2023-02-05T07:02:11;8.90;99.90
32536;DHT22;18974;50.838;4.636;2023-02-05T07:04:37;8.80;99.90
32536;DHT22;18974;50.838;4.636;2023-02-05T07:07:03;8.80;99.90
32536;DHT22;18974;50.838;4.636;2023-02-05T07:09:28;8.80;99.90
32536;DHT22;18974;50.838;4.636;2023-02-05T07:11:54;8.70;99.90
32536;DHT22;18974;50.838;4.636;2023-02-05T07:14:20;8.80;99.90
32536;DHT22;18974;50.838;4.636;2023-02-05T07:16:45;8.80;99.90
32536;DHT22;18974;50.838;4.636;2023-02-05T07:19:11;8.60;99.90
32536;DHT22;18974;50.838;4.636;2023-02-05T07:21:36;8.60;99.90
32536;DHT22;18974;50.838;4.636;2023-02-05T07:24:02;8.50;99.90
32536;DHT22;18974;50.838;4.636;2023-02-05T07:26:28;8.40;99.90
32536;DHT22;18974;50.838;4.636;2023-02-05T07:28:53;8.50;99.90
32536;DHT22;18974;50.838;4.636;2023-02-05T07:31:19;8.30;99.90
32536;DHT22;18974;50.838;4.636;2023-02-05T07:33:46;8.20;99.90
32536;DHT22;18974;50.838;4.636;2023-02-05T07:36:14;8.10;99.90
32536;DHT22;18974;50.838;4.636;2023-02-05T07:38:41;8.00;99.90
32536;DHT22;18974;50.838;4.636;2023-02-05T07:41:09;8.00;99.90
32536;DHT22;18974;50.838;4.636;2023-02-05T07:43:36;8.10;99.90
32536;DHT22;18974;50.838;4.636;2023-02-05T07:46:06;8.00;99.90
32536;DHT22;18974;50.838;4.636;2023-02-05T07:48:33;8.00;99.90
32536;DHT22;18974;50.838;4.636;2023-02-05T07:50:59;8.10;99.90
32536;DHT22;18974;50.838;4.636;2023-02-05T07:53:25;7.90;99.90
32536;DHT22;18974;50.838;4.636;2023-02-05T07:55:51;8.10;99.90
32536;DHT22;18974;50.838;4.636;2023-02-05T07:58:17;8.10;99.90
32536;DHT22;18974;50.838;4.636;2023-02-05T08:00:43;8.00;99.90
32536;DHT22;18974;50.838;4.636;2023-02-05T08:03:09;8.00;99.90
32536;DHT22;18974;50.838;4.636;2023-02-05T08:05:36;8.00;99.90
32536;DHT22;18974;50.838;4.636;2023-02-05T08:08:02;8.00;99.90
32536;DHT22;18974;50.838;4.636;2023-02-05T08:10:27;7.90;99.90
32536;DHT22;18974;50.838;4.636;2023-02-05T08:12:53;8.00;99.90
32536;DHT22;18974;50.838;4.636;2023-02-05T08:15:19;8.00;99.90
32536;DHT22;18974;50.838;4.636;2023-02-05T08:17:45;8.00;99.90
32536;DHT22;18974;50.838;4.636;2023-02-05T08:20:11;8.10;99.90
32536;DHT22;18974;50.838;4.636;2023-02-05T08:22:39;8.10;99.90
32536;DHT22;18974;50.838;4.636;2023-02-05T08:25:06;8.20;99.90
32536;DHT22;18974;50.838;4.636;2023-02-05T08:27:34;8.20;99.90
32536;DHT22;18974;50.838;4.636;2023-02-05T08:30:02;8.10;99.90
32536;DHT22;18974;50.838;4.636;2023-02-05T08:32:28;8.00;99.90
32536;DHT22;18974;50.838;4.636;2023-02-05T08:34:53;8.00;99.90
32536;DHT22;18974;50.838;4.636;2023-02-05T08:37:19;8.00;99.90
32536;DHT22;18974;50.838;4.636;2023-02-05T08:39:44;8.10;99.90
32536;DHT22;18974;50.838;4.636;2023-02-05T08:42:11;8.20;99.90
32536;DHT22;18974;50.838;4.636;2023-02-05T08:44:36;8.30;99.90
32536;DHT22;18974;50.838;4.636;2023-02-05T08:47:02;8.30;99.90
32536;DHT22;18974;50.838;4.636;2023-02-05T08:49:30;8.40;99.90
32536;DHT22;18974;50.838;4.636;2023-02-05T08:57:06;8.70;99.90
32536;DHT22;18974;50.838;4.636;2023-02-05T08:59:32;8.80;99.90
32536;DHT22;18974;50.838;4.636;2023-02-05T09:01:57;8.80;99.90
32536;DHT22;18974;50.838;4.636;2023-02-05T09:04:23;8.80;99.90
32536;DHT22;18974;50.838;4.636;2023-02-05T09:06:50;8.90;99.90
32536;DHT22;18974;50.838;4.636;2023-02-05T09:09:16;8.90;99.90
32536;DHT22;18974;50.838;4.636;2023-02-05T09:11:43;9.00;99.90
32536;DHT22;18974;50.838;4.636;2023-02-05T09:14:09;9.10;99.90
32536;DHT22;18974;50.838;4.636;2023-02-05T09:16:37;9.20;99.90
32536;DHT22;18974;50.838;4.636;2023-02-05T09:19:03;9.20;99.90
32536;DHT22;18974;50.838;4.636;2023-02-05T09:21:29;9.20;99.90
32536;DHT22;18974;50.838;4.636;2023-02-05T09:23:54;9.20;99.90
32536;DHT22;18974;50.838;4.636;2023-02-05T09:26:20;9.40;99.90
32536;DHT22;18974;50.838;4.636;2023-02-05T09:28:46;9.30;99.90
32536;DHT22;18974;50.838;4.636;2023-02-05T09:31:17;9.20;99.90
32536;DHT22;18974;50.838;4.636;2023-02-05T09:33:43;9.10;99.90
32536;DHT22;18974;50.838;4.636;2023-02-05T09:36:17;9.00;99.90
32536;DHT22;18974;50.838;4.636;2023-02-05T09:38:43;8.70;99.90
32536;DHT22;18974;50.838;4.636;2023-02-05T09:46:15;8.50;99.90
32536;DHT22;18974;50.838;4.636;2023-02-05T09:51:36;8.60;99.90
32536;DHT22;18974;50.838;4.636;2023-02-05T09:56:38;8.60;99.90
32536;DHT22;18974;50.838;4.636;2023-02-05T09:59:04;8.50;99.90
32536;DHT22;18974;50.838;4.636;2023-02-05T10:04:15;8.60;99.90
32536;DHT22;18974;50.838;4.636;2023-02-05T10:12:18;8.80;99.90
32536;DHT22;18974;50.838;4.636;2023-02-05T10:22:42;9.20;99.90
32536;DHT22;18974;50.838;4.636;2023-02-05T10:25:38;9.20;99.90
32536;DHT22;18974;50.838;4.636;2023-02-05T10:33:53;9.00;99.90
32536;DHT22;18974;50.838;4.636;2023-02-05T10:36:25;9.30;99.90
32536;DHT22;18974;50.838;4.636;2023-02-05T10:38:54;9.30;99.90
32536;DHT22;18974;50.838;4.636;2023-02-05T10:41:39;9.40;99.90
32536;DHT22;18974;50.838;4.636;2023-02-05T10:46:59;9.20;99.90
32536;DHT22;18974;50.838;4.636;2023-02-05T10:49:47;9.10;99.90
32536;DHT22;18974;50.838;4.636;2023-02-05T10:52:15;8.90;99.90
32536;DHT22;18974;50.838;4.636;2023-02-05T10:54:41;8.80;99.90
32536;DHT22;18974;50.838;4.636;2023-02-05T10:57:18;8.80;99.90
32536;DHT22;18974;50.838;4.636;2023-02-05T11:00:12;8.80;99.90
32536;DHT22;18974;50.838;4.636;2023-02-05T11:02:41;8.70;99.90
32536;DHT22;18974;50.838;4.636;2023-02-05T11:05:39;8.80;99.90
32536;DHT22;18974;50.838;4.636;2023-02-05T11:08:36;9.10;99.90
32536;DHT22;18974;50.838;4.636;2023-02-05T11:11:04;9.40;99.90
32536;DHT22;18974;50.838;4.636;2023-02-05T11:13:30;9.40;99.90
32536;DHT22;18974;50.838;4.636;2023-02-05T11:15:58;9.30;99.90
32536;DHT22;18974;50.838;4.636;2023-02-05T11:18:37;9.40;99.90
32536;DHT22;18974;50.838;4.636;2023-02-05T11:21:07;9.50;99.90
32536;DHT22;18974;50.838;4.636;2023-02-05T11:23:36;9.50;99.90
32536;DHT22;18974;50.838;4.636;2023-02-05T11:26:17;9.60;99.90
32536;DHT22;18974;50.838;4.636;2023-02-05T11:28:44;9.50;99.90
32536;DHT22;18974;50.838;4.636;2023-02-05T11:31:36;9.40;99.90
32536;DHT22;18974;50.838;4.636;2023-02-05T11:34:14;9.60;99.90
32536;DHT22;18974;50.838;4.636;2023-02-05T11:36:54;9.70;99.90
32536;DHT22;18974;50.838;4.636;2023-02-05T11:39:34;9.80;99.90
32536;DHT22;18974;50.838;4.636;2023-02-05T11:42:30;9.80;99.90
32536;DHT22;18974;50.838;4.636;2023-02-05T11:44:59;9.60;99.90
32536;DHT22;18974;50.838;4.636;2023-02-05T11:47:36;9.50;99.90
32536;DHT22;18974;50.838;4.636;2023-02-05T11:50:17;9.40;99.90
32536;DHT22;18974;50.838;4.636;2023-02-05T11:52:45;9.50;99.90
32536;DHT22;18974;50.838;4.636;2023-02-05T11:55:32;9.50;99.90
32536;DHT22;18974;50.838;4.636;2023-02-05T11:58:10;9.50;99.90
32536;DHT22;18974;50.838;4.636;2023-02-05T12:00:54;9.60;99.90
32536;DHT22;18974;50.838;4.636;2023-02-05T12:03:27;9.70;99.90
32536;DHT22;18974;50.838;4.636;2023-02-05T12:06:17;10.00;99.90
32536;DHT22;18974;50.838;4.636;2023-02-05T12:08:52;10.40;99.90
32536;DHT22;18974;50.838;4.636;2023-02-05T12:11:44;10.30;99.90
32536;DHT22;18974;50.838;4.636;2023-02-05T12:19:57;10.20;99.90
32536;DHT22;18974;50.838;4.636;2023-02-05T12:22:55;10.20;99.90
32536;DHT22;18974;50.838;4.636;2023-02-05T12:30:58;10.00;99.90
32536;DHT22;18974;50.838;4.636;2023-02-05T12:36:28;10.00;99.90
32536;DHT22;18974;50.838;4.636;2023-02-05T12:39:16;10.10;99.90
32536;DHT22;18974;50.838;4.636;2023-02-05T12:58:15;10.30;99.90
32536;DHT22;18974;50.838;4.636;2023-02-05T13:06:01;10.90;99.90
32536;DHT22;18974;50.838;4.636;2023-02-05T13:08:42;10.90;99.90
32536;DHT22;18974;50.838;4.636;2023-02-05T13:11:26;10.80;99.90
32536;DHT22;18974;50.838;4.636;2023-02-05T13:16:28;10.60;99.90
32536;DHT22;18974;50.838;4.636;2023-02-05T13:19:05;10.70;99.90
32536;DHT22;18974;50.838;4.636;2023-02-05T13:21:40;10.70;99.90
32536;DHT22;18974;50.838;4.636;2023-02-05T13:24:31;10.70;99.90
32536;DHT22;18974;50.838;4.636;2023-02-05T13:27:24;10.50;99.90
32536;DHT22;18974;50.838;4.636;2023-02-05T13:30:20;10.50;99.90
32536;DHT22;18974;50.838;4.636;2023-02-05T13:32:50;10.60;99.90
32536;DHT22;18974;50.838;4.636;2023-02-05T13:35:17;10.70;99.90
32536;DHT22;18974;50.838;4.636;2023-02-05T13:40:32;10.60;99.90
32536;DHT22;18974;50.838;4.636;2023-02-05T13:49:00;10.90;99.90
32536;DHT22;18974;50.838;4.636;2023-02-05T13:57:45;10.80;99.90
32536;DHT22;18974;50.838;4.636;2023-02-05T14:00:15;10.70;99.90
32536;DHT22;18974;50.838;4.636;2023-02-05T14:02:50;10.70;99.90
32536;DHT22;18974;50.838;4.636;2023-02-05T14:05:31;10.60;99.90
32536;DHT22;18974;50.838;4.636;2023-02-05T14:07:57;10.50;99.90
32536;DHT22;18974;50.838;4.636;2023-02-05T14:13:18;10.50;99.90
32536;DHT22;18974;50.838;4.636;2023-02-05T14:15:50;10.40;99.90
32536;DHT22;18974;50.838;4.636;2023-02-05T14:26:48;10.20;99.90
32536;DHT22;18974;50.838;4.636;2023-02-05T14:32:03;10.30;99.90
32536;DHT22;18974;50.838;4.636;2023-02-05T14:34:56;10.40;99.90
32536;DHT22;18974;50.838;4.636;2023-02-05T14:37:38;10.40;99.90
32536;DHT22;18974;50.838;4.636;2023-02-05T14:40:25;10.40;99.90
32536;DHT22;18974;50.838;4.636;2023-02-05T14:42:54;10.50;99.90
32536;DHT22;18974;50.838;4.636;2023-02-05T14:45:21;10.60;99.90
32536;DHT22;18974;50.838;4.636;2023-02-05T14:47:47;10.40;99.90
32536;DHT22;18974;50.838;4.636;2023-02-05T14:50:25;10.30;99.90
32536;DHT22;18974;50.838;4.636;2023-02-05T14:52:55;10.30;99.90
32536;DHT22;18974;50.838;4.636;2023-02-05T14:55:28;10.30;99.90
32536;DHT22;18974;50.838;4.636;2023-02-05T14:58:04;10.20;99.90
32536;DHT22;18974;50.838;4.636;2023-02-05T15:00:38;10.10;99.90
32536;DHT22;18974;50.838;4.636;2023-02-05T15:13:33;9.90;99.90
32536;DHT22;18974;50.838;4.636;2023-02-05T15:18:54;10.00;99.90
32536;DHT22;18974;50.838;4.636;2023-02-05T15:22:07;10.00;99.90
32536;DHT22;18974;50.838;4.636;2023-02-05T15:24:27;9.90;99.90
32536;DHT22;18974;50.838;4.636;2023-02-05T15:27:05;9.80;99.90
32536;DHT22;18974;50.838;4.636;2023-02-05T15:29:43;9.90;99.90
32536;DHT22;18974;50.838;4.636;2023-02-05T15:32:29;9.70;99.90
32536;DHT22;18974;50.838;4.636;2023-02-05T15:35:11;9.70;99.90
32536;DHT22;18974;50.838;4.636;2023-02-05T15:37:55;9.70;99.90
32536;DHT22;18974;50.838;4.636;2023-02-05T15:40:40;9.80;99.90
32536;DHT22;18974;50.838;4.636;2023-02-05T15:43:16;9.70;99.90
32536;DHT22;18974;50.838;4.636;2023-02-05T15:45:43;9.80;99.90
32536;DHT22;18974;50.838;4.636;2023-02-05T15:48:13;9.80;99.90
32536;DHT22;18974;50.838;4.636;2023-02-05T15:51:01;9.60;99.90
32536;DHT22;18974;50.838;4.636;2023-02-05T15:53:43;9.50;99.90
32536;DHT22;18974;50.838;4.636;2023-02-05T15:59:00;9.30;99.90
32536;DHT22;18974;50.838;4.636;2023-02-05T16:04:01;9.20;99.90
32536;DHT22;18974;50.838;4.636;2023-02-05T16:06:29;9.20;99.90
32536;DHT22;18974;50.838;4.636;2023-02-05T16:08:55;9.30;99.90
32536;DHT22;18974;50.838;4.636;2023-02-05T16:11:27;9.40;99.90
32536;DHT22;18974;50.838;4.636;2023-02-05T16:16:34;9.50;99.90
32536;DHT22;18974;50.838;4.636;2023-02-05T16:19:02;9.50;99.90
32536;DHT22;18974;50.838;4.636;2023-02-05T16:21:44;9.50;99.90
32536;DHT22;18974;50.838;4.636;2023-02-05T16:24:33;9.50;99.90
32536;DHT22;18974;50.838;4.636;2023-02-05T16:27:15;9.40;99.90
32536;DHT22;18974;50.838;4.636;2023-02-05T16:29:48;9.20;99.90
32536;DHT22;18974;50.838;4.636;2023-02-05T16:34:48;9.00;99.90
32536;DHT22;18974;50.838;4.636;2023-02-05T16:37:15;8.90;99.90
32536;DHT22;18974;50.838;4.636;2023-02-05T16:39:44;8.80;99.90
32536;DHT22;18974;50.838;4.636;2023-02-05T16:42:39;8.70;99.90
32536;DHT22;18974;50.838;4.636;2023-02-05T16:45:23;8.60;99.90
32536;DHT22;18974;50.838;4.636;2023-02-05T16:50:43;8.50;99.90
32536;DHT22;18974;50.838;4.636;2023-02-05T16:53:22;8.40;99.90
32536;DHT22;18974;50.838;4.636;2023-02-05T16:56:00;8.30;99.90
32536;DHT22;18974;50.838;4.636;2023-02-05T16:58:43;8.30;99.90
32536;DHT22;18974;50.838;4.636;2023-02-05T17:01:09;8.20;99.90
32536;DHT22;18974;50.838;4.636;2023-02-05T17:03:38;8.10;99.90
32536;DHT22;18974;50.838;4.636;2023-02-05T17:06:11;8.10;99.90
32536;DHT22;18974;50.838;4.636;2023-02-05T17:08:39;8.10;99.90
32536;DHT22;18974;50.838;4.636;2023-02-05T17:11:10;8.10;99.90
32536;DHT22;18974;50.838;4.636;2023-02-05T17:16:41;7.90;99.90
32536;DHT22;18974;50.838;4.636;2023-02-05T17:19:25;7.90;99.90
32536;DHT22;18974;50.838;4.636;2023-02-05T17:24:37;7.80;99.90
32536;DHT22;18974;50.838;4.636;2023-02-05T17:27:03;7.80;99.90
32536;DHT22;18974;50.838;4.636;2023-02-05T17:29:29;7.80;99.90
32536;DHT22;18974;50.838;4.636;2023-02-05T17:31:57;7.70;99.90
32536;DHT22;18974;50.838;4.636;2023-02-05T17:34:23;7.80;99.90
32536;DHT22;18974;50.838;4.636;2023-02-05T17:36:48;7.70;99.90
32536;DHT22;18974;50.838;4.636;2023-02-05T17:39:16;7.80;99.90
32536;DHT22;18974;50.838;4.636;2023-02-05T17:41:42;7.80;99.90
32536;DHT22;18974;50.838;4.636;2023-02-05T17:44:26;7.70;99.90
32536;DHT22;18974;50.838;4.636;2023-02-05T17:46:53;7.80;99.90
32536;DHT22;18974;50.838;4.636;2023-02-05T17:49:19;7.80;99.90
32536;DHT22;18974;50.838;4.636;2023-02-05T17:51:45;7.60;99.90
32536;DHT22;18974;50.838;4.636;2023-02-05T17:54:13;7.60;99.90
32536;DHT22;18974;50.838;4.636;2023-02-05T17:56:39;7.50;99.90
32536;DHT22;18974;50.838;4.636;2023-02-05T17:59:14;7.60;99.90
32536;DHT22;18974;50.838;4.636;2023-02-05T18:01:40;7.60;99.90
32536;DHT22;18974;50.838;4.636;2023-02-05T18:04:06;7.60;99.90
32536;DHT22;18974;50.838;4.636;2023-02-05T18:06:31;7.50;99.90
32536;DHT22;18974;50.838;4.636;2023-02-05T18:08:58;7.50;99.90
32536;DHT22;18974;50.838;4.636;2023-02-05T18:11:23;7.40;99.90
32536;DHT22;18974;50.838;4.636;2023-02-05T18:13:49;7.40;99.90
32536;DHT22;18974;50.838;4.636;2023-02-05T18:16:15;7.40;99.90
32536;DHT22;18974;50.838;4.636;2023-02-05T18:18:40;7.40;99.90
32536;DHT22;18974;50.838;4.636;2023-02-05T18:21:07;7.40;99.90
32536;DHT22;18974;50.838;4.636;2023-02-05T18:23:33;7.30;99.90
32536;DHT22;18974;50.838;4.636;2023-02-05T18:26:04;7.20;99.90
32536;DHT22;18974;50.838;4.636;2023-02-05T18:28:30;7.10;99.90
32536;DHT22;18974;50.838;4.636;2023-02-05T18:31:02;7.00;99.90
32536;DHT22;18974;50.838;4.636;2023-02-05T18:33:28;7.00;99.90
32536;DHT22;18974;50.838;4.636;2023-02-05T18:36:12;7.00;99.90
32536;DHT22;18974;50.838;4.636;2023-02-05T18:38:38;6.90;99.90
32536;DHT22;18974;50.838;4.636;2023-02-05T18:41:10;7.00;99.90
32536;DHT22;18974;50.838;4.636;2023-02-05T18:43:36;6.90;99.90
32536;DHT22;18974;50.838;4.636;2023-02-05T18:46:11;6.90;99.90
32536;DHT22;18974;50.838;4.636;2023-02-05T18:48:39;6.90;99.90
32536;DHT22;18974;50.838;4.636;2023-02-05T18:51:07;6.90;99.90